Time;durP1;ratioP1;P1;durP2;ratioP2;P2;SDS_P1;SDS_P2;PMS_P1;PMS_P2;Temp;Humidity;BMP_temperature;BMP_pressure;BME280_temperature;BME280_humidity;BME280_pressure;Samples;Min_cycle;Max_cycle;Signal;HPM_P1;HPM_P2
2023/12/31 00:01:35;;;;;;;0.15;0.15;;;8.70;90.70;;;;;;5067209;28;20151;-69
2023/12/31 00:04:02;;;;;;;0.10;0.10;;;8.70;90.60;;;;;;5047487;28;20514;-68
2023/12/31 00:06:27;;;;;;;0.00;0.00;;;8.70;90.70;;;;;;5049302;28;20061;-69
2023/12/31 00:08:53;;;;;;;0.00;0.00;;;8.70;90.60;;;;;;5049369;28;20043;-69
2023/12/31 00:11:18;;;;;;;0.10;0.10;;;8.70;90.60;;;;;;5051062;28;20063;-69
2023/12/31 00:13:44;;;;;;;0.00;0.00;;;8.80;90.70;;;;;;5067686;28;20628;-69
2023/12/31 00:16:14;;;;;;;0.13;0.13;;;8.70;90.60;;;;;;5068036;28;20091;-69
2023/12/31 00:18:39;;;;;;;0.47;0.47;;;8.80;90.60;;;;;;5068767;28;20048;-69
2023/12/31 00:21:05;;;;;;;0.08;0.08;;;8.80;90.50;;;;;;5068018;28;20110;-69
2023/12/31 00:23:31;;;;;;;0.08;0.08;;;8.80;90.50;;;;;;5068220;28;20052;-69
2023/12/31 00:25:56;;;;;;;0.00;0.00;;;8.70;90.60;;;;;;5067248;28;20799;-69
2023/12/31 00:28:22;;;;;;;0.00;0.00;;;8.70;90.70;;;;;;5066238;28;20037;-69
2023/12/31 00:30:48;;;;;;;0.05;0.05;;;8.70;90.70;;;;;;5066459;28;20513;-67
2023/12/31 00:33:13;;;;;;;0.00;0.00;;;8.70;90.80;;;;;;5066275;28;20072;-69
2023/12/31 00:35:39;;;;;;;0.45;0.45;;;8.70;90.70;;;;;;5065481;28;20045;-70
2023/12/31 00:38:04;;;;;;;0.00;0.00;;;8.70;90.80;;;;;;5065555;28;20052;-71
2023/12/31 00:40:30;;;;;;;0.00;0.00;;;8.70;90.80;;;;;;5067018;28;20049;-71
2023/12/31 00:42:56;;;;;;;0.10;0.10;;;8.70;91.00;;;;;;5068087;28;20033;-71
2023/12/31 00:45:21;;;;;;;0.00;0.00;;;8.60;91.00;;;;;;5068618;28;20101;-69
2023/12/31 00:47:47;;;;;;;0.00;0.00;;;8.60;91.10;;;;;;5066646;28;20036;-69
2023/12/31 00:50:13;;;;;;;0.00;0.00;;;8.60;91.10;;;;;;5067993;28;20079;-69
2023/12/31 00:52:38;;;;;;;0.00;0.00;;;8.60;91.00;;;;;;5067910;28;20052;-69
2023/12/31 00:55:05;;;;;;;0.05;0.05;;;8.60;91.10;;;;;;5068616;28;20459;-69
2023/12/31 00:57:30;;;;;;;0.00;0.00;;;8.60;91.20;;;;;;5068209;28;20045;-69
2023/12/31 00:59:56;;;;;;;0.00;0.00;;;8.50;91.20;;;;;;5050999;28;20046;-69
2023/12/31 01:02:22;;;;;;;0.10;0.10;;;8.60;91.30;;;;;;5067832;28;20523;-69
2023/12/31 01:04:47;;;;;;;0.00;0.00;;;8.60;91.30;;;;;;5049817;28;20110;-69
2023/12/31 01:07:13;;;;;;;0.00;0.00;;;8.60;91.30;;;;;;5067228;28;20048;-69
2023/12/31 01:09:40;;;;;;;0.10;0.10;;;8.60;91.40;;;;;;5067703;28;20048;-69
2023/12/31 01:12:06;;;;;;;0.00;0.00;;;8.60;91.30;;;;;;5067380;28;20057;-69
2023/12/31 01:14:31;;;;;;;0.00;0.00;;;8.60;91.30;;;;;;5067251;28;20510;-69
2023/12/31 01:16:57;;;;;;;0.00;0.00;;;8.60;91.40;;;;;;5065913;28;20495;-69
2023/12/31 01:19:23;;;;;;;0.00;0.00;;;8.60;91.30;;;;;;5049785;28;20555;-69
2023/12/31 01:21:49;;;;;;;3.47;2.03;;;8.60;91.30;;;;;;5066853;28;20044;-69
2023/12/31 01:24:15;;;;;;;0.00;0.00;;;8.60;91.30;;;;;;5049568;28;20045;-69
2023/12/31 01:26:40;;;;;;;0.10;0.10;;;8.60;91.30;;;;;;5066583;28;20076;-69
2023/12/31 01:29:06;;;;;;;0.00;0.00;;;8.60;91.20;;;;;;5067248;28;20686;-69
2023/12/31 01:31:31;;;;;;;0.00;0.00;;;8.60;91.20;;;;;;5048854;28;20051;-69
2023/12/31 01:33:57;;;;;;;0.30;0.30;;;8.60;91.20;;;;;;5067003;28;20040;-69
2023/12/31 01:36:25;;;;;;;0.00;0.00;;;8.60;91.10;;;;;;5067496;28;20049;-69
2023/12/31 01:38:51;;;;;;;0.00;0.00;;;8.60;91.10;;;;;;5067011;28;20072;-69
2023/12/31 01:41:16;;;;;;;0.00;0.00;;;8.50;91.10;;;;;;5067215;28;20071;-69
2023/12/31 01:43:42;;;;;;;0.00;0.00;;;8.50;91.10;;;;;;5066383;28;20048;-69
2023/12/31 01:46:09;;;;;;;0.00;0.00;;;8.50;91.00;;;;;;5067454;28;20048;-69
2023/12/31 01:48:35;;;;;;;0.00;0.00;;;8.40;90.90;;;;;;5066560;28;20072;-69
2023/12/31 01:51:02;;;;;;;0.00;0.00;;;8.40;91.00;;;;;;5066665;28;20490;-69
2023/12/31 01:53:30;;;;;;;0.00;0.00;;;8.40;91.00;;;;;;5065636;28;20050;-69
2023/12/31 01:55:57;;;;;;;0.00;0.00;;;8.40;91.00;;;;;;5067178;28;20581;-69
2023/12/31 01:58:23;;;;;;;0.00;0.00;;;8.40;91.00;;;;;;5049471;28;20079;-69
2023/12/31 02:00:49;;;;;;;0.00;0.00;;;8.40;91.00;;;;;;5066912;28;20857;-69
2023/12/31 02:03:15;;;;;;;0.05;0.05;;;8.40;91.00;;;;;;5045660;28;20041;-69
2023/12/31 02:05:41;;;;;;;0.35;0.35;;;8.40;91.00;;;;;;5047208;28;20071;-69
2023/12/31 02:08:07;;;;;;;0.03;0.03;;;8.30;90.80;;;;;;5051609;28;20132;-69
2023/12/31 02:10:33;;;;;;;0.25;0.25;;;8.20;90.80;;;;;;5066212;28;20135;-69
2023/12/31 02:13:00;;;;;;;0.00;0.00;;;8.30;90.90;;;;;;5048016;28;20115;-69
2023/12/31 02:15:33;;;;;;;0.10;0.10;;;8.20;90.80;;;;;;5067402;28;20041;-69
2023/12/31 02:18:02;;;;;;;0.52;0.52;;;8.20;90.70;;;;;;5056768;28;20037;-69
2023/12/31 02:20:32;;;;;;;0.00;0.00;;;8.20;90.70;;;;;;5043521;28;20544;-69
2023/12/31 02:22:58;;;;;;;0.00;0.00;;;8.20;90.80;;;;;;5066782;28;20040;-69
2023/12/31 02:25:26;;;;;;;0.10;0.10;;;8.20;90.70;;;;;;5066419;28;20044;-69
2023/12/31 02:27:52;;;;;;;0.00;0.00;;;8.10;90.70;;;;;;5060783;28;20847;-69
2023/12/31 02:30:19;;;;;;;0.10;0.10;;;8.10;90.60;;;;;;5064321;28;20047;-69
2023/12/31 02:32:45;;;;;;;0.30;0.30;;;8.10;90.50;;;;;;5066088;28;20041;-69
2023/12/31 02:35:10;;;;;;;0.00;0.00;;;8.10;90.60;;;;;;5065340;28;20122;-69
2023/12/31 02:37:36;;;;;;;0.00;0.00;;;8.10;90.60;;;;;;5069721;28;20526;-69
2023/12/31 02:40:01;;;;;;;0.08;0.08;;;8.10;90.60;;;;;;5072719;28;20051;-68
2023/12/31 02:42:27;;;;;;;0.17;0.17;;;8.10;90.50;;;;;;5073517;28;20097;-69
2023/12/31 02:44:53;;;;;;;0.08;0.08;;;8.10;90.50;;;;;;5072623;28;20094;-69
2023/12/31 02:47:18;;;;;;;0.00;0.00;;;8.10;90.50;;;;;;5073767;28;20503;-68
2023/12/31 02:49:44;;;;;;;0.00;0.00;;;8.10;90.50;;;;;;5071271;28;20188;-68
2023/12/31 02:52:11;;;;;;;0.35;0.35;;;8.10;90.40;;;;;;5072917;28;20088;-69
2023/12/31 02:54:37;;;;;;;0.00;0.00;;;8.10;90.50;;;;;;5070370;28;21054;-69
2023/12/31 02:57:06;;;;;;;0.00;0.00;;;8.10;90.30;;;;;;5073010;28;20040;-69
2023/12/31 02:59:35;;;;;;;0.10;0.10;;;8.10;90.30;;;;;;5072395;28;20897;-70
2023/12/31 03:02:02;;;;;;;0.00;0.00;;;8.20;90.20;;;;;;5072221;28;20101;-69
2023/12/31 03:04:27;;;;;;;0.00;0.00;;;8.10;90.00;;;;;;5067600;28;20045;-69
2023/12/31 03:06:53;;;;;;;2.38;2.28;;;8.10;90.00;;;;;;5073395;28;20060;-69
2023/12/31 03:09:21;;;;;;;0.00;0.00;;;8.20;90.00;;;;;;5073171;28;20054;-69
2023/12/31 03:11:51;;;;;;;0.00;0.00;;;8.10;90.00;;;;;;5055149;28;20059;-69
2023/12/31 03:14:17;;;;;;;0.00;0.00;;;8.10;89.80;;;;;;5072335;28;20044;-69
2023/12/31 03:16:46;;;;;;;0.10;0.10;;;8.10;89.90;;;;;;5071358;28;20055;-69
2023/12/31 03:19:13;;;;;;;0.10;0.10;;;8.10;89.80;;;;;;5073120;28;20080;-69
2023/12/31 03:21:38;;;;;;;0.10;0.10;;;8.10;89.90;;;;;;5072381;28;20136;-69
2023/12/31 03:24:04;;;;;;;0.00;0.00;;;8.10;89.90;;;;;;5072026;28;20535;-69
2023/12/31 03:26:30;;;;;;;0.00;0.00;;;8.10;89.80;;;;;;5072209;28;20402;-68
2023/12/31 03:28:55;;;;;;;0.00;0.00;;;8.10;89.70;;;;;;5073272;28;20049;-69
2023/12/31 03:31:21;;;;;;;0.00;0.00;;;8.10;89.80;;;;;;5072902;28;20482;-69
2023/12/31 03:33:47;;;;;;;0.10;0.10;;;8.10;89.80;;;;;;5054447;28;20045;-69
2023/12/31 03:36:12;;;;;;;0.10;0.10;;;8.20;89.70;;;;;;5065791;28;20123;-69
2023/12/31 03:38:38;;;;;;;0.00;0.00;;;8.20;89.60;;;;;;5053096;28;20088;-69
2023/12/31 03:41:04;;;;;;;0.00;0.00;;;8.20;89.60;;;;;;5052031;28;20522;-69
2023/12/31 03:43:31;;;;;;;0.00;0.00;;;8.20;89.50;;;;;;5072680;28;20075;-68
2023/12/31 03:45:57;;;;;;;0.00;0.00;;;8.30;89.50;;;;;;5054830;28;20053;-69
2023/12/31 03:48:23;;;;;;;0.00;0.00;;;8.20;89.40;;;;;;5071778;28;20076;-69
2023/12/31 03:50:49;;;;;;;0.08;0.08;;;8.20;89.40;;;;;;5069488;28;20558;-69
2023/12/31 03:53:14;;;;;;;0.00;0.00;;;8.20;89.30;;;;;;5068371;28;20174;-69
2023/12/31 03:55:41;;;;;;;0.00;0.00;;;8.30;89.30;;;;;;5069048;28;20048;-69
2023/12/31 03:58:06;;;;;;;0.00;0.00;;;8.30;89.30;;;;;;5046041;28;20041;-69
2023/12/31 04:00:33;;;;;;;0.10;0.10;;;8.20;89.20;;;;;;5050043;28;20037;-69
2023/12/31 04:02:58;;;;;;;0.00;0.00;;;8.30;89.10;;;;;;5069303;28;20131;-68
2023/12/31 04:05:24;;;;;;;0.00;0.00;;;8.30;89.00;;;;;;5067902;28;20151;-69
2023/12/31 04:07:50;;;;;;;0.00;0.00;;;8.30;88.80;;;;;;5051159;28;20102;-69
2023/12/31 04:10:16;;;;;;;0.00;0.00;;;8.30;88.70;;;;;;5068972;28;20044;-69
2023/12/31 04:12:41;;;;;;;0.00;0.00;;;8.30;88.80;;;;;;5047709;28;20045;-69
2023/12/31 04:15:08;;;;;;;0.00;0.00;;;8.30;88.60;;;;;;5065496;28;20139;-69
2023/12/31 04:17:34;;;;;;;0.00;0.00;;;8.30;88.60;;;;;;5069052;28;20052;-69
2023/12/31 04:20:00;;;;;;;0.00;0.00;;;8.30;88.60;;;;;;5068919;28;20115;-69
2023/12/31 04:22:26;;;;;;;0.00;0.00;;;8.30;88.70;;;;;;5068261;28;20083;-70
2023/12/31 04:24:51;;;;;;;0.00;0.00;;;8.30;88.60;;;;;;5068898;28;20048;-69
2023/12/31 04:27:18;;;;;;;0.00;0.00;;;8.30;88.40;;;;;;5067220;28;20043;-69
2023/12/31 04:29:44;;;;;;;0.00;0.00;;;8.20;88.40;;;;;;5067910;28;20041;-70
2023/12/31 04:32:09;;;;;;;0.00;0.00;;;8.30;88.50;;;;;;5050805;28;20044;-69
2023/12/31 04:34:35;;;;;;;0.00;0.00;;;8.30;88.20;;;;;;5069289;28;20037;-69
2023/12/31 04:37:01;;;;;;;0.00;0.00;;;8.30;88.40;;;;;;5068594;28;20152;-69
2023/12/31 04:39:26;;;;;;;0.10;0.10;;;8.30;88.30;;;;;;5067921;28;20032;-69
2023/12/31 04:41:54;;;;;;;0.00;0.00;;;8.30;88.20;;;;;;5068286;28;20040;-69
2023/12/31 04:44:19;;;;;;;0.00;0.00;;;8.30;88.20;;;;;;5068288;28;20048;-69
2023/12/31 04:46:45;;;;;;;0.00;0.00;;;8.20;88.10;;;;;;5068034;28;20032;-69
2023/12/31 04:49:13;;;;;;;0.03;0.03;;;8.20;88.20;;;;;;5066775;28;20490;-69
2023/12/31 04:51:39;;;;;;;0.00;0.00;;;8.20;88.10;;;;;;5068253;28;20052;-69
2023/12/31 04:54:04;;;;;;;0.25;0.25;;;8.30;88.10;;;;;;5068023;28;20402;-69
2023/12/31 04:56:30;;;;;;;0.00;0.00;;;8.30;88.20;;;;;;5069064;28;20048;-69
2023/12/31 04:58:57;;;;;;;0.00;0.00;;;8.30;88.00;;;;;;5059511;28;20175;-69
2023/12/31 05:01:22;;;;;;;0.00;0.00;;;8.30;87.70;;;;;;5054567;28;20124;-69
2023/12/31 05:03:49;;;;;;;0.00;0.00;;;8.30;87.70;;;;;;5052687;28;20032;-69
2023/12/31 05:06:15;;;;;;;0.00;0.00;;;8.30;87.80;;;;;;5067797;28;20589;-69
2023/12/31 05:08:45;;;;;;;0.00;0.00;;;8.30;87.70;;;;;;5050069;28;20498;-69
2023/12/31 05:11:12;;;;;;;0.00;0.00;;;8.30;87.60;;;;;;5067294;28;20387;-69
2023/12/31 05:13:39;;;;;;;0.00;0.00;;;8.30;87.60;;;;;;5063384;28;20040;-69
2023/12/31 05:16:10;;;;;;;0.00;0.00;;;8.30;87.60;;;;;;5067861;28;20116;-69
2023/12/31 05:18:36;;;;;;;0.00;0.00;;;8.30;87.60;;;;;;5050288;28;20125;-69
2023/12/31 05:21:02;;;;;;;0.00;0.00;;;8.30;87.40;;;;;;5067724;28;20123;-69
2023/12/31 05:23:30;;;;;;;0.00;0.00;;;8.40;87.40;;;;;;5063741;28;20120;-69
2023/12/31 05:25:55;;;;;;;0.03;0.03;;;8.30;87.50;;;;;;5046054;28;20063;-69
2023/12/31 05:28:21;;;;;;;0.00;0.00;;;8.30;87.40;;;;;;5051375;28;20037;-69
2023/12/31 05:30:47;;;;;;;0.00;0.00;;;8.30;87.30;;;;;;5066797;28;20490;-69
2023/12/31 05:33:12;;;;;;;0.00;0.00;;;8.30;87.30;;;;;;5067700;28;20796;-69
2023/12/31 05:35:38;;;;;;;0.00;0.00;;;8.30;86.90;;;;;;5065706;28;20068;-69
2023/12/31 05:38:04;;;;;;;0.05;0.05;;;8.30;87.10;;;;;;5067489;28;20049;-68
2023/12/31 05:40:29;;;;;;;0.00;0.00;;;8.30;87.20;;;;;;5066663;28;20036;-69
2023/12/31 05:42:55;;;;;;;0.00;0.00;;;8.40;87.20;;;;;;5049548;28;20041;-68
2023/12/31 05:45:21;;;;;;;0.10;0.10;;;8.50;86.80;;;;;;5067476;28;20037;-68
2023/12/31 05:47:47;;;;;;;0.05;0.05;;;8.50;86.80;;;;;;5066391;28;20080;-68
2023/12/31 05:50:13;;;;;;;0.00;0.00;;;8.40;86.80;;;;;;5067365;28;20036;-68
2023/12/31 05:52:39;;;;;;;0.00;0.00;;;8.40;86.50;;;;;;5066641;28;20040;-68
2023/12/31 05:55:05;;;;;;;0.00;0.00;;;8.50;86.60;;;;;;5067219;28;20040;-68
2023/12/31 05:57:31;;;;;;;0.00;0.00;;;8.50;86.50;;;;;;5067550;28;20055;-68
2023/12/31 05:59:56;;;;;;;0.00;0.00;;;8.50;86.50;;;;;;5067006;28;20032;-69
2023/12/31 06:02:22;;;;;;;0.00;0.00;;;8.50;86.50;;;;;;5065292;28;20069;-68
2023/12/31 06:04:47;;;;;;;0.10;0.10;;;8.60;86.30;;;;;;5066621;28;20044;-68
2023/12/31 06:07:13;;;;;;;0.00;0.00;;;8.60;86.10;;;;;;5067171;28;20049;-68
2023/12/31 06:09:39;;;;;;;0.28;0.28;;;8.60;86.00;;;;;;5067130;28;20444;-69
2023/12/31 06:12:04;;;;;;;0.00;0.00;;;8.50;85.90;;;;;;5062207;28;20504;-69
2023/12/31 06:14:30;;;;;;;0.00;0.00;;;8.50;85.90;;;;;;5067197;28;20037;-69
2023/12/31 06:16:56;;;;;;;0.00;0.00;;;8.50;85.80;;;;;;5066955;28;20053;-69
2023/12/31 06:19:21;;;;;;;0.00;0.00;;;8.50;85.90;;;;;;5066630;28;20048;-69
2023/12/31 06:21:47;;;;;;;0.00;0.00;;;8.60;85.70;;;;;;5066278;28;20040;-69
2023/12/31 06:24:12;;;;;;;0.00;0.00;;;8.50;85.80;;;;;;5066545;28;20039;-69
2023/12/31 06:26:38;;;;;;;0.25;0.25;;;8.50;85.60;;;;;;5066492;28;20561;-69
2023/12/31 06:29:04;;;;;;;0.00;0.00;;;8.60;85.80;;;;;;5049278;28;20044;-69
2023/12/31 06:31:29;;;;;;;0.00;0.00;;;8.60;85.80;;;;;;5066565;28;20047;-69
2023/12/31 06:33:55;;;;;;;0.00;0.00;;;8.60;85.60;;;;;;5066874;28;20048;-69
2023/12/31 06:36:20;;;;;;;0.00;0.00;;;8.60;85.30;;;;;;5048536;28;20079;-69
2023/12/31 06:38:46;;;;;;;0.00;0.00;;;8.60;85.30;;;;;;5066202;28;20491;-69
2023/12/31 06:41:12;;;;;;;0.00;0.00;;;8.60;85.50;;;;;;5066990;28;20048;-69
2023/12/31 06:43:38;;;;;;;0.00;0.00;;;8.60;85.00;;;;;;5065565;28;20044;-69
2023/12/31 06:46:04;;;;;;;0.00;0.00;;;8.60;85.10;;;;;;5066610;28;20152;-69
2023/12/31 06:48:30;;;;;;;0.10;0.10;;;8.70;85.20;;;;;;5066261;28;20044;-69
2023/12/31 06:50:56;;;;;;;0.05;0.05;;;8.70;85.10;;;;;;5066501;28;20460;-69
2023/12/31 06:53:22;;;;;;;0.10;0.10;;;8.70;85.30;;;;;;5065329;28;20060;-69
2023/12/31 06:55:48;;;;;;;0.00;0.00;;;8.70;85.00;;;;;;5066397;28;20033;-69
2023/12/31 06:58:14;;;;;;;0.52;0.52;;;8.70;84.90;;;;;;5066295;28;20047;-69
2023/12/31 07:00:40;;;;;;;0.10;0.10;;;8.70;85.20;;;;;;5065585;28;20040;-69
2023/12/31 07:03:05;;;;;;;1.65;1.45;;;8.70;85.00;;;;;;5065973;28;20685;-70
2023/12/31 07:05:31;;;;;;;0.00;0.00;;;8.70;85.10;;;;;;5066311;28;20036;-69
2023/12/31 07:07:57;;;;;;;0.00;0.00;;;8.70;85.30;;;;;;5047608;28;20505;-69
2023/12/31 07:10:23;;;;;;;0.00;0.00;;;8.60;85.20;;;;;;5053771;28;20094;-69
2023/12/31 07:12:49;;;;;;;0.00;0.00;;;8.70;85.20;;;;;;5062198;28;20051;-69
2023/12/31 07:15:15;;;;;;;0.00;0.00;;;8.60;85.30;;;;;;5065418;28;20037;-69
2023/12/31 07:17:41;;;;;;;0.22;0.22;;;8.60;85.40;;;;;;5066606;28;20045;-68
2023/12/31 07:20:07;;;;;;;0.00;0.00;;;8.70;85.60;;;;;;5065673;28;20051;-69
2023/12/31 07:22:33;;;;;;;1.38;1.27;;;8.70;85.50;;;;;;5065187;28;20060;-69
2023/12/31 07:25:00;;;;;;;0.00;0.00;;;8.70;85.50;;;;;;5057817;28;20147;-69
2023/12/31 07:27:26;;;;;;;0.00;0.00;;;8.70;85.60;;;;;;5047788;28;20175;-69
2023/12/31 07:29:51;;;;;;;0.10;0.10;;;8.70;85.60;;;;;;5048879;28;20049;-69
2023/12/31 07:32:18;;;;;;;0.00;0.00;;;8.70;85.50;;;;;;5068073;28;20087;-69
2023/12/31 07:34:44;;;;;;;0.22;0.22;;;8.70;85.30;;;;;;5066337;28;20040;-69
2023/12/31 07:37:09;;;;;;;0.10;0.10;;;8.80;85.40;;;;;;5068508;28;20048;-69
2023/12/31 07:39:35;;;;;;;0.20;0.20;;;8.70;85.50;;;;;;5067980;28;20044;-69
2023/12/31 07:42:03;;;;;;;0.00;0.00;;;8.80;85.60;;;;;;5050316;28;20052;-69
2023/12/31 07:44:29;;;;;;;0.00;0.00;;;8.70;85.20;;;;;;5070406;28;20041;-69
2023/12/31 07:46:56;;;;;;;0.00;0.00;;;8.80;85.40;;;;;;5045670;28;20044;-70
2023/12/31 07:49:22;;;;;;;0.00;0.00;;;8.90;85.30;;;;;;5060530;28;20640;-70
2023/12/31 07:51:48;;;;;;;0.00;0.00;;;8.80;85.30;;;;;;5068858;28;20045;-69
2023/12/31 07:54:13;;;;;;;0.00;0.00;;;8.80;85.40;;;;;;5068014;28;20055;-69
2023/12/31 07:56:41;;;;;;;0.15;0.15;;;8.80;85.40;;;;;;5068956;28;20044;-70
2023/12/31 07:59:06;;;;;;;0.00;0.00;;;8.80;85.50;;;;;;5050178;28;20044;-69
2023/12/31 08:01:32;;;;;;;0.00;0.00;;;8.80;85.50;;;;;;5067412;28;20109;-69
2023/12/31 08:03:58;;;;;;;0.00;0.00;;;8.70;85.60;;;;;;5063175;28;20522;-68
2023/12/31 08:06:23;;;;;;;0.00;0.00;;;8.70;85.70;;;;;;5055974;28;20059;-68
2023/12/31 08:08:49;;;;;;;0.00;0.00;;;8.70;85.70;;;;;;5066953;28;20092;-68
2023/12/31 08:11:15;;;;;;;0.00;0.00;;;8.70;85.80;;;;;;5067349;28;20226;-68
2023/12/31 08:13:41;;;;;;;0.00;0.00;;;8.70;85.80;;;;;;5062553;28;20717;-68
2023/12/31 08:16:07;;;;;;;0.00;0.00;;;8.70;85.80;;;;;;5060794;28;20530;-68
2023/12/31 08:18:34;;;;;;;0.00;0.00;;;8.70;85.80;;;;;;5062228;28;20075;-68
2023/12/31 08:21:00;;;;;;;0.00;0.00;;;8.80;85.80;;;;;;5050793;28;20092;-68
2023/12/31 08:23:25;;;;;;;0.00;0.00;;;8.80;85.70;;;;;;5063033;28;20136;-68
2023/12/31 08:25:51;;;;;;;0.00;0.00;;;8.80;85.70;;;;;;5068463;28;20036;-68
2023/12/31 08:28:16;;;;;;;0.20;0.20;;;8.80;85.70;;;;;;5067156;28;20048;-68
2023/12/31 08:30:42;;;;;;;0.00;0.00;;;8.90;85.60;;;;;;5067197;28;20059;-68
2023/12/31 08:33:08;;;;;;;0.00;0.00;;;8.90;85.50;;;;;;5067555;28;20505;-69
2023/12/31 08:35:33;;;;;;;0.20;0.20;;;8.90;85.30;;;;;;5067610;28;20051;-69
2023/12/31 08:37:59;;;;;;;0.00;0.00;;;8.90;85.20;;;;;;5065012;28;20097;-68
2023/12/31 08:40:24;;;;;;;0.00;0.00;;;8.80;85.40;;;;;;5068196;28;20053;-69
2023/12/31 08:42:50;;;;;;;0.45;0.45;;;8.90;85.50;;;;;;5065935;28;20052;-69
2023/12/31 08:45:16;;;;;;;0.10;0.10;;;8.80;85.50;;;;;;5049614;28;20078;-68
2023/12/31 08:47:41;;;;;;;0.00;0.00;;;8.90;85.50;;;;;;5067388;28;20041;-71
2023/12/31 08:50:09;;;;;;;0.20;0.20;;;8.90;85.50;;;;;;5067853;28;20059;-69
2023/12/31 08:52:38;;;;;;;0.25;0.25;;;9.00;85.50;;;;;;5066494;28;20057;-69
2023/12/31 08:55:06;;;;;;;0.90;0.65;;;9.00;85.40;;;;;;5067213;28;20052;-69
2023/12/31 08:57:31;;;;;;;0.15;0.15;;;9.00;85.50;;;;;;5066536;28;20052;-70
2023/12/31 08:59:57;;;;;;;0.03;0.03;;;9.10;85.70;;;;;;5065712;28;20563;-69
2023/12/31 09:02:23;;;;;;;0.00;0.00;;;9.10;85.70;;;;;;5057777;28;20040;-69
2023/12/31 09:04:48;;;;;;;0.00;0.00;;;9.00;85.60;;;;;;5049524;28;20564;-69
2023/12/31 09:07:14;;;;;;;0.15;0.15;;;9.00;85.70;;;;;;5065376;28;20438;-69
2023/12/31 09:09:40;;;;;;;0.10;0.10;;;9.00;85.60;;;;;;5060435;28;20083;-69
2023/12/31 09:12:06;;;;;;;0.20;0.20;;;9.00;86.00;;;;;;5075893;28;20086;-69
2023/12/31 09:14:32;;;;;;;0.25;0.25;;;9.00;86.10;;;;;;5064896;28;20621;-69
2023/12/31 09:16:57;;;;;;;0.00;0.00;;;9.00;86.20;;;;;;5063802;28;20052;-69
2023/12/31 09:19:23;;;;;;;0.35;0.10;;;9.00;86.30;;;;;;5066539;28;20056;-68
2023/12/31 09:21:48;;;;;;;0.00;0.00;;;9.00;86.60;;;;;;5064894;28;20036;-68
2023/12/31 09:24:14;;;;;;;0.00;0.00;;;9.00;86.80;;;;;;5060387;28;20053;-68
2023/12/31 09:26:39;;;;;;;0.00;0.00;;;8.90;87.00;;;;;;5047527;28;20076;-68
2023/12/31 09:29:05;;;;;;;0.03;0.03;;;9.00;87.00;;;;;;5062154;28;20052;-68
2023/12/31 09:31:31;;;;;;;0.22;0.22;;;9.00;87.10;;;;;;5066053;28;20040;-68
2023/12/31 09:33:56;;;;;;;0.00;0.00;;;9.00;87.30;;;;;;5052299;28;20574;-67
2023/12/31 09:36:22;;;;;;;0.10;0.10;;;8.90;87.60;;;;;;5064011;28;20059;-68
2023/12/31 09:38:48;;;;;;;0.00;0.00;;;8.90;88.00;;;;;;5066899;28;20080;-68
2023/12/31 09:41:21;;;;;;;0.00;0.00;;;8.90;88.10;;;;;;5065808;28;20407;-68
2023/12/31 09:43:50;;;;;;;0.08;0.08;;;8.90;88.00;;;;;;5065841;28;20791;-68
2023/12/31 09:46:17;;;;;;;0.10;0.10;;;9.00;88.00;;;;;;5058391;28;20420;-68
2023/12/31 09:48:43;;;;;;;0.00;0.00;;;9.00;88.00;;;;;;5059406;28;20053;-68
2023/12/31 09:51:09;;;;;;;0.00;0.00;;;9.00;88.00;;;;;;5058674;28;20040;-68
2023/12/31 09:53:38;;;;;;;0.00;0.00;;;8.90;88.20;;;;;;5065513;28;20093;-68
2023/12/31 09:56:05;;;;;;;0.00;0.00;;;9.00;88.30;;;;;;5066736;28;20506;-68
2023/12/31 09:58:33;;;;;;;0.20;0.20;;;9.00;88.40;;;;;;5047163;28;20052;-68
2023/12/31 10:00:59;;;;;;;0.00;0.00;;;9.00;88.40;;;;;;5066078;28;20491;-68
2023/12/31 10:03:26;;;;;;;0.05;0.05;;;9.10;88.30;;;;;;5065719;28;20063;-67
2023/12/31 10:05:52;;;;;;;0.00;0.00;;;9.10;88.40;;;;;;5063017;28;20040;-68
2023/12/31 10:08:19;;;;;;;0.00;0.00;;;9.10;88.10;;;;;;5065149;28;20036;-67
2023/12/31 10:10:45;;;;;;;0.00;0.00;;;9.10;88.10;;;;;;5065321;28;20064;-68
2023/12/31 10:13:15;;;;;;;0.30;0.30;;;9.10;88.20;;;;;;5064682;28;20514;-68
2023/12/31 10:15:42;;;;;;;0.00;0.00;;;9.10;88.10;;;;;;5064607;28;20032;-68
2023/12/31 10:18:09;;;;;;;0.03;0.03;;;9.10;88.00;;;;;;5063434;28;20044;-68
2023/12/31 10:20:38;;;;;;;0.85;0.47;;;9.10;87.90;;;;;;5066023;28;20044;-68
2023/12/31 10:23:04;;;;;;;0.00;0.00;;;9.20;87.70;;;;;;5062599;28;20051;-68
2023/12/31 10:25:30;;;;;;;0.03;0.03;;;9.20;87.80;;;;;;5064241;28;20037;-68
2023/12/31 10:27:56;;;;;;;0.00;0.00;;;9.20;87.70;;;;;;5059858;28;20040;-68
2023/12/31 10:30:22;;;;;;;0.10;0.10;;;9.20;87.50;;;;;;5062183;28;20052;-69
2023/12/31 10:32:49;;;;;;;0.10;0.10;;;9.20;87.50;;;;;;5062808;28;20051;-69
2023/12/31 10:35:20;;;;;;;0.98;0.90;;;9.20;87.70;;;;;;5053794;28;20126;-69
2023/12/31 10:37:46;;;;;;;0.10;0.10;;;9.20;87.70;;;;;;5057004;28;20089;-68
2023/12/31 10:40:21;;;;;;;0.00;0.00;;;9.20;87.70;;;;;;5065313;28;20057;-69
2023/12/31 10:42:52;;;;;;;0.43;0.43;;;9.30;88.00;;;;;;5063552;28;20040;-69
2023/12/31 10:45:19;;;;;;;0.00;0.00;;;9.40;87.90;;;;;;5057607;28;20059;-69
2023/12/31 10:47:48;;;;;;;0.00;0.00;;;9.40;87.90;;;;;;5058905;28;20075;-69
2023/12/31 10:50:19;;;;;;;0.10;0.10;;;9.30;88.20;;;;;;5051721;28;20106;-69
2023/12/31 10:52:47;;;;;;;0.00;0.00;;;9.20;87.30;;;;;;5057356;28;20059;-68
2023/12/31 10:55:14;;;;;;;0.00;0.00;;;9.10;86.50;;;;;;5062070;28;20043;-68
2023/12/31 10:57:42;;;;;;;0.00;0.00;;;8.90;86.30;;;;;;5061185;28;21117;-68
2023/12/31 11:00:11;;;;;;;0.00;0.00;;;8.80;86.60;;;;;;5056413;28;20048;-68
2023/12/31 11:02:37;;;;;;;0.00;0.00;;;8.70;86.80;;;;;;5059821;28;20028;-68
2023/12/31 11:05:03;;;;;;;0.00;0.00;;;8.70;86.80;;;;;;5065777;28;20048;-68
2023/12/31 11:07:30;;;;;;;0.00;0.00;;;8.70;87.10;;;;;;5066227;28;20067;-68
2023/12/31 11:09:57;;;;;;;0.00;0.00;;;8.70;87.30;;;;;;5066825;28;20045;-68
2023/12/31 11:12:23;;;;;;;0.00;0.00;;;8.60;87.30;;;;;;5064287;28;20055;-68
2023/12/31 11:15:06;;;;;;;0.00;0.00;;;8.60;87.40;;;;;;5064635;28;20045;-69
2023/12/31 11:17:50;;;;;;;0.00;0.00;;;8.50;87.40;;;;;;5057112;28;20046;-69
2023/12/31 11:20:40;;;;;;;0.00;0.00;;;8.60;87.60;;;;;;5050704;28;20044;-69
2023/12/31 11:23:50;;;;;;;0.00;0.00;;;8.50;87.70;;;;;;5062237;28;20135;-69
2023/12/31 11:26:17;;;;;;;0.00;0.00;;;8.50;87.70;;;;;;5050326;28;20056;-69
2023/12/31 11:28:48;;;;;;;0.00;0.00;;;8.50;87.70;;;;;;5067378;28;20071;-69
2023/12/31 11:31:14;;;;;;;0.00;0.00;;;8.40;87.80;;;;;;5068054;28;20490;-69
2023/12/31 11:33:40;;;;;;;0.00;0.00;;;8.50;88.10;;;;;;5068313;28;20044;-69
2023/12/31 11:36:11;;;;;;;0.00;0.00;;;8.50;88.20;;;;;;5068030;28;20045;-69
2023/12/31 11:38:53;;;;;;;0.00;0.00;;;8.50;88.20;;;;;;5068812;28;20131;-69
2023/12/31 11:41:19;;;;;;;0.00;0.00;;;8.50;88.50;;;;;;5063939;28;20071;-69
2023/12/31 11:43:45;;;;;;;0.05;0.05;;;8.60;88.60;;;;;;5068407;28;20044;-69
2023/12/31 11:46:40;;;;;;;0.00;0.00;;;8.60;88.60;;;;;;5067472;28;20045;-69
2023/12/31 11:49:07;;;;;;;0.00;0.00;;;8.70;88.60;;;;;;5063602;28;20098;-69
2023/12/31 11:51:55;;;;;;;0.00;0.00;;;8.70;88.70;;;;;;5065169;28;20033;-69
2023/12/31 11:54:34;;;;;;;0.00;0.00;;;8.80;88.60;;;;;;5066666;28;20048;-69
2023/12/31 11:57:02;;;;;;;0.05;0.05;;;8.90;88.70;;;;;;5062878;28;20044;-69
2023/12/31 11:59:27;;;;;;;0.00;0.00;;;8.90;88.90;;;;;;5060281;28;20510;-69
2023/12/31 12:01:54;;;;;;;0.00;0.00;;;9.00;88.90;;;;;;5067586;28;20035;-69
2023/12/31 12:04:20;;;;;;;0.00;0.00;;;9.00;88.80;;;;;;5068445;28;20048;-70
2023/12/31 12:06:46;;;;;;;0.00;0.00;;;9.00;88.60;;;;;;5066940;28;20045;-70
2023/12/31 12:09:12;;;;;;;0.17;0.17;;;9.10;88.60;;;;;;5068195;28;20045;-69
2023/12/31 12:11:42;;;;;;;0.00;0.00;;;9.00;88.40;;;;;;5068368;28;20895;-70
2023/12/31 12:14:09;;;;;;;0.00;0.00;;;9.10;88.10;;;;;;5068639;28;20055;-70
2023/12/31 12:16:35;;;;;;;0.00;0.00;;;9.10;88.00;;;;;;5068356;28;20443;-70
2023/12/31 12:19:01;;;;;;;0.00;0.00;;;9.10;87.80;;;;;;5066466;28;20123;-70
2023/12/31 12:21:28;;;;;;;0.00;0.00;;;9.10;87.80;;;;;;5082997;28;20044;-70
2023/12/31 12:23:54;;;;;;;0.00;0.00;;;9.00;87.90;;;;;;5067873;28;20072;-68
2023/12/31 12:26:22;;;;;;;0.00;0.00;;;9.00;88.10;;;;;;5067984;28;20040;-69
2023/12/31 12:28:49;;;;;;;0.00;0.00;;;9.00;88.10;;;;;;5067389;28;20131;-70
2023/12/31 12:31:17;;;;;;;0.00;0.00;;;9.00;88.10;;;;;;5063138;28;20054;-69
2023/12/31 12:33:53;;;;;;;3.10;2.45;;;9.10;88.20;;;;;;5066667;28;20515;-69
2023/12/31 12:36:20;;;;;;;0.00;0.00;;;9.00;88.20;;;;;;5063175;28;20048;-69
2023/12/31 12:38:48;;;;;;;0.00;0.00;;;8.90;88.50;;;;;;5067368;28;20121;-69
2023/12/31 12:41:23;;;;;;;0.00;0.00;;;8.90;88.50;;;;;;5065996;28;20130;-69
2023/12/31 12:44:07;;;;;;;0.00;0.00;;;8.90;88.70;;;;;;5066764;28;20538;-69
2023/12/31 12:46:33;;;;;;;0.00;0.00;;;9.00;88.60;;;;;;5064428;28;20085;-69
2023/12/31 12:48:59;;;;;;;0.00;0.00;;;9.00;88.60;;;;;;5066764;28;20082;-69
2023/12/31 12:51:26;;;;;;;0.00;0.00;;;9.00;88.60;;;;;;5049543;28;20457;-69
2023/12/31 12:53:55;;;;;;;0.00;0.00;;;9.00;88.40;;;;;;5065815;28;20059;-69
2023/12/31 12:56:22;;;;;;;0.10;0.10;;;8.70;86.90;;;;;;5063247;28;20041;-69